createdAt,value
2019-02-14T00:00:04.328Z,4.85
2019-02-14T00:02:32.923Z,5.22
2019-02-14T00:05:01.479Z,5.20
2019-02-14T00:07:30.073Z,5.12
2019-02-14T00:09:58.624Z,5.03
2019-02-14T00:12:27.218Z,4.08
2019-02-14T00:14:55.780Z,4.80
2019-02-14T00:17:24.376Z,4.60
2019-02-14T00:19:53.033Z,4.78
2019-02-14T00:22:21.642Z,4.72
2019-02-14T00:24:50.193Z,5.10
2019-02-14T00:27:18.801Z,5.22
2019-02-14T00:29:47.392Z,5.45
2019-02-14T00:32:15.951Z,4.87
2019-02-14T00:34:44.499Z,5.17
2019-02-14T00:37:13.099Z,5.35
2019-02-14T00:39:41.662Z,5.40
2019-02-14T00:42:10.254Z,5.97
2019-02-14T00:44:38.803Z,5.37
2019-02-14T00:47:07.405Z,6.03
2019-02-14T00:49:35.951Z,5.75
2019-02-14T00:52:04.547Z,5.83
2019-02-14T00:54:33.097Z,5.55
2019-02-14T00:57:02.444Z,5.55
2019-02-14T00:59:30.999Z,6.10
2019-02-14T01:01:59.592Z,6.00
2019-02-14T01:04:28.216Z,5.62
2019-02-14T01:06:56.812Z,5.42
2019-02-14T01:09:25.633Z,6.35
2019-02-14T01:11:54.293Z,5.90
2019-02-14T01:14:22.852Z,5.87
2019-02-14T01:16:51.439Z,5.42
2019-02-14T01:19:19.995Z,6.00
2019-02-14T01:21:48.589Z,5.85
2019-02-14T01:24:17.145Z,5.42
2019-02-14T01:26:45.747Z,5.90
2019-02-14T01:29:14.376Z,5.65
2019-02-14T01:31:43.040Z,6.28
2019-02-14T01:34:11.587Z,6.35
2019-02-14T01:36:40.184Z,5.60
2019-02-14T01:39:08.739Z,6.15
2019-02-14T01:41:37.340Z,6.20
2019-02-14T01:44:05.897Z,5.62
2019-02-14T01:46:34.490Z,5.50
2019-02-14T01:49:03.044Z,6.40
2019-02-14T01:51:31.640Z,5.65
2019-02-14T01:54:00.195Z,7.08
2019-02-14T01:56:28.796Z,6.53
2019-02-14T01:58:57.344Z,6.20
2019-02-14T02:01:26.008Z,7.03
2019-02-14T02:03:54.614Z,6.55
2019-02-14T02:06:23.168Z,5.83
2019-02-14T02:08:51.765Z,5.83
2019-02-14T02:11:20.320Z,5.85
2019-02-14T02:13:48.905Z,5.25
2019-02-14T02:16:17.500Z,6.17
2019-02-14T02:18:46.058Z,5.70
2019-02-14T02:21:14.654Z,4.95
2019-02-14T02:23:43.215Z,5.12
2019-02-14T02:26:11.879Z,5.15
2019-02-14T02:28:40.442Z,5.60
2019-02-14T02:31:09.049Z,5.12
2019-02-14T02:33:37.604Z,4.70
2019-02-14T02:36:06.244Z,4.53
2019-02-14T02:38:34.800Z,5.28
2019-02-14T02:41:03.401Z,4.47
2019-02-14T02:43:31.955Z,5.28
2019-02-14T02:46:00.547Z,4.78
2019-02-14T02:48:29.108Z,5.65
2019-02-14T02:50:57.702Z,5.15
2019-02-14T02:53:26.275Z,4.83
2019-02-14T02:55:55.135Z,5.80
2019-02-14T02:58:23.687Z,6.17
2019-02-14T03:00:52.298Z,6.40
2019-02-14T03:03:20.851Z,5.53
2019-02-14T03:05:49.460Z,5.97
2019-02-14T03:08:18.019Z,6.15
2019-02-14T03:10:46.620Z,5.05
2019-02-14T03:13:15.177Z,5.22
2019-02-14T03:15:43.775Z,5.47
2019-02-14T03:18:12.338Z,5.35
2019-02-14T03:20:40.932Z,6.08
2019-02-14T03:23:09.494Z,5.83
2019-02-14T03:25:38.092Z,6.80
2019-02-14T03:28:06.653Z,5.90
2019-02-14T03:30:35.262Z,5.90
2019-02-14T03:33:03.816Z,5.78
2019-02-14T03:35:32.453Z,7.28
2019-02-14T03:38:00.965Z,6.00
2019-02-14T03:40:29.557Z,5.97
2019-02-14T03:42:58.251Z,6.50
2019-02-14T03:45:26.916Z,6.00
2019-02-14T03:47:55.480Z,5.53
2019-02-14T03:50:24.080Z,6.40
2019-02-14T03:52:52.642Z,6.03
2019-02-14T03:55:21.329Z,5.85
2019-02-14T03:57:49.888Z,6.22
2019-02-14T04:00:18.828Z,5.85
2019-02-14T04:02:47.398Z,6.47
2019-02-14T04:05:15.952Z,6.08
2019-02-14T04:07:44.556Z,5.85
2019-02-14T04:10:16.126Z,6.08
2019-02-14T04:12:44.718Z,5.22
2019-02-14T04:15:15.486Z,4.90
2019-02-14T04:17:44.079Z,5.25
2019-02-14T04:20:13.176Z,5.10
2019-02-14T04:22:41.778Z,5.17
2019-02-14T04:25:10.671Z,5.37
2019-02-14T04:27:39.336Z,5.47
2019-02-14T04:30:11.297Z,5.40
2019-02-14T04:32:39.898Z,6.05
2019-02-14T04:35:08.453Z,5.25
2019-02-14T04:37:37.053Z,4.80
2019-02-14T04:40:08.697Z,5.20
2019-02-14T04:42:37.288Z,4.50
2019-02-14T04:45:07.286Z,4.80
2019-02-14T04:47:35.890Z,4.47
2019-02-14T04:50:06.281Z,4.37
2019-02-14T04:52:34.872Z,5.65
2019-02-14T04:55:03.714Z,7.50
2019-02-14T04:57:32.308Z,7.70
2019-02-14T05:00:00.866Z,6.05
2019-02-14T05:02:29.455Z,6.37
2019-02-14T05:04:58.081Z,5.28
2019-02-14T05:07:26.680Z,5.40
2019-02-14T05:09:55.236Z,5.40
2019-02-14T05:12:23.836Z,5.10
2019-02-14T05:14:52.397Z,6.25
2019-02-14T05:17:21.003Z,6.40
2019-02-14T05:19:49.596Z,6.08
2019-02-14T05:22:18.188Z,5.72
2019-02-14T05:24:46.753Z,5.80
2019-02-14T05:27:15.353Z,4.80
2019-02-14T05:29:43.910Z,5.00
2019-02-14T05:32:12.509Z,5.53
2019-02-14T05:34:41.075Z,4.70
2019-02-14T05:37:09.663Z,5.10
2019-02-14T05:39:38.229Z,4.87
2019-02-14T05:42:06.824Z,4.53
2019-02-14T05:44:35.375Z,4.75
2019-02-14T05:47:03.985Z,4.87
2019-02-14T05:49:32.548Z,4.40
2019-02-14T05:52:02.503Z,4.05
2019-02-14T05:54:31.059Z,4.65
2019-02-14T05:56:59.609Z,4.60
2019-02-14T05:59:28.218Z,5.00
2019-02-14T06:01:56.777Z,4.92
2019-02-14T06:04:25.760Z,5.75
2019-02-14T06:07:00.897Z,4.72
2019-02-14T06:09:24.575Z,4.87
2019-02-14T06:11:53.207Z,5.33
2019-02-14T06:14:21.808Z,4.58
2019-02-14T06:16:50.372Z,5.08
2019-02-14T06:19:18.976Z,5.00
2019-02-14T06:21:47.587Z,5.35
2019-02-14T06:24:16.188Z,4.83
2019-02-14T06:26:44.749Z,5.92
2019-02-14T06:29:13.350Z,6.83
2019-02-14T06:31:41.904Z,6.10
2019-02-14T06:34:10.498Z,6.28
2019-02-14T06:36:39.106Z,6.72
2019-02-14T06:39:08.120Z,7.12
2019-02-14T06:41:37.775Z,7.50
2019-02-14T06:44:07.623Z,6.00
2019-02-14T06:46:37.305Z,6.47
2019-02-14T06:49:05.905Z,5.45
2019-02-14T06:51:34.455Z,4.92
2019-02-14T06:54:04.120Z,5.12
2019-02-14T06:56:32.676Z,4.95
2019-02-14T06:59:02.889Z,4.53
2019-02-14T07:01:31.607Z,4.80
2019-02-14T07:04:03.142Z,4.80
2019-02-14T07:06:31.886Z,5.62
2019-02-14T07:09:00.487Z,6.45
2019-02-14T07:11:29.048Z,5.67
2019-02-14T07:13:57.672Z,4.90
2019-02-14T07:16:26.255Z,7.65
2019-02-14T07:18:54.857Z,7.70
2019-02-14T07:21:23.416Z,9.10
2019-02-14T07:23:52.019Z,9.30
2019-02-14T07:26:20.580Z,5.95
2019-02-14T07:28:49.180Z,6.40
2019-02-14T07:31:17.737Z,6.15
2019-02-14T07:33:46.346Z,8.05
2019-02-14T07:36:14.910Z,7.87
2019-02-14T07:38:43.508Z,6.35
2019-02-14T07:41:12.080Z,21.95
2019-02-14T07:43:40.681Z,20.30
2019-02-14T07:46:09.249Z,18.40
2019-02-14T07:48:37.853Z,15.18
2019-02-14T07:51:06.420Z,11.60
2019-02-14T07:53:35.020Z,11.90
2019-02-14T07:56:03.655Z,15.45
2019-02-14T07:58:32.333Z,10.75
2019-02-14T08:01:00.957Z,8.70
2019-02-14T08:03:29.562Z,8.83
2019-02-14T08:05:58.117Z,7.75
2019-02-14T08:08:26.711Z,7.55
2019-02-14T08:10:55.269Z,7.10
2019-02-14T08:13:25.652Z,7.22
2019-02-14T08:15:54.077Z,7.60
2019-02-14T08:18:22.680Z,6.37
2019-02-14T08:20:51.264Z,9.40
2019-02-14T08:23:19.865Z,8.20
2019-02-14T08:25:48.488Z,6.95
2019-02-14T08:28:17.148Z,7.92
2019-02-14T08:30:45.641Z,9.33
2019-02-14T08:33:14.200Z,7.62
2019-02-14T08:35:42.792Z,8.48
2019-02-14T08:38:11.348Z,8.08
2019-02-14T08:40:39.948Z,8.35
2019-02-14T08:43:08.503Z,8.85
2019-02-14T08:45:37.118Z,8.35
2019-02-14T08:48:05.996Z,9.25
2019-02-14T08:50:34.593Z,9.83
2019-02-14T08:53:03.148Z,9.93
2019-02-14T08:55:31.748Z,10.63
2019-02-14T08:58:00.317Z,9.03
2019-02-14T09:00:28.978Z,8.58
2019-02-14T09:02:57.532Z,7.08
2019-02-14T09:05:26.196Z,6.65
2019-02-14T09:07:55.212Z,7.05
2019-02-14T09:10:23.859Z,6.83
2019-02-14T09:12:52.417Z,6.55
2019-02-14T09:15:21.016Z,6.62
2019-02-14T09:17:49.577Z,6.78
2019-02-14T09:20:20.393Z,7.70
2019-02-14T09:22:52.007Z,7.17
2019-02-14T09:25:20.617Z,7.55
2019-02-14T09:27:49.176Z,6.93
2019-02-14T09:30:17.808Z,9.13
2019-02-14T09:32:46.440Z,10.13
2019-02-14T09:35:15.041Z,9.40
2019-02-14T09:37:43.599Z,8.20
2019-02-14T09:40:15.275Z,8.83
2019-02-14T09:42:43.879Z,13.37
2019-02-14T09:45:13.933Z,11.37
2019-02-14T09:47:42.569Z,10.77
2019-02-14T09:50:12.825Z,9.57
2019-02-14T09:52:41.836Z,7.83
2019-02-14T09:55:11.675Z,8.80
2019-02-14T09:57:40.379Z,9.17
2019-02-14T10:00:11.789Z,10.20
2019-02-14T10:02:40.346Z,9.73
2019-02-14T10:05:09.814Z,8.90
2019-02-14T10:07:38.361Z,8.43
2019-02-14T10:10:15.611Z,9.77
2019-02-14T10:12:44.156Z,8.90
2019-02-14T10:15:13.298Z,11.13
2019-02-14T10:17:41.848Z,15.00
2019-02-14T10:20:13.581Z,10.00
2019-02-14T10:22:42.204Z,8.97
2019-02-14T10:25:11.548Z,8.93
2019-02-14T10:27:40.100Z,8.67
2019-02-14T10:30:20.425Z,8.47
2019-02-14T10:32:48.992Z,9.03
2019-02-14T10:35:17.590Z,9.23
2019-02-14T10:37:46.216Z,9.50
2019-02-14T10:40:16.627Z,9.30
2019-02-14T10:42:45.192Z,9.40
2019-02-14T10:45:21.640Z,9.47
2019-02-14T10:47:50.332Z,8.83
2019-02-14T10:50:18.924Z,9.50
2019-02-14T10:52:47.479Z,8.70
2019-02-14T10:55:16.411Z,8.17
2019-02-14T10:57:45.039Z,7.90
2019-02-14T11:00:27.200Z,8.57
2019-02-14T11:02:55.905Z,7.90
2019-02-14T11:05:25.333Z,8.07
2019-02-14T11:07:53.963Z,8.07
2019-02-14T11:10:22.643Z,7.80
2019-02-14T11:12:51.389Z,7.77
2019-02-14T11:15:23.035Z,7.60
2019-02-14T11:17:51.642Z,7.57
2019-02-14T11:20:20.265Z,8.10
2019-02-14T11:22:49.412Z,8.07
2019-02-14T11:25:38.507Z,7.43
2019-02-14T11:28:07.053Z,7.20
2019-02-14T11:30:35.684Z,6.43
2019-02-14T11:33:04.274Z,6.43
2019-02-14T11:35:32.824Z,6.80
2019-02-14T11:38:02.529Z,6.63
2019-02-14T11:40:31.090Z,7.10
2019-02-14T11:42:59.706Z,6.87
2019-02-14T11:45:28.333Z,7.93
2019-02-14T11:47:56.888Z,7.60
2019-02-14T11:50:25.484Z,6.40
2019-02-14T11:52:54.042Z,6.63
2019-02-14T11:55:22.701Z,5.90
2019-02-14T11:57:51.264Z,6.07
2019-02-14T12:00:27.801Z,7.10
2019-02-14T12:02:56.519Z,7.00
2019-02-14T12:05:25.158Z,6.57
2019-02-14T12:07:53.782Z,6.50
2019-02-14T12:10:22.397Z,5.97
2019-02-14T12:12:50.958Z,5.53
2019-02-14T12:15:19.564Z,5.57
2019-02-14T12:17:48.387Z,7.60
2019-02-14T12:20:17.062Z,6.50
2019-02-14T12:22:47.184Z,6.00
2019-02-14T12:25:18.731Z,6.57
2019-02-14T12:27:47.289Z,6.47
2019-02-14T12:30:16.138Z,6.13
2019-02-14T12:32:44.701Z,5.83
2019-02-14T12:35:13.383Z,6.37
2019-02-14T12:37:42.008Z,6.07
2019-02-14T12:40:12.249Z,5.43
2019-02-14T12:42:40.800Z,6.00
2019-02-14T12:45:20.320Z,6.30
2019-02-14T12:47:43.176Z,6.07
2019-02-14T12:50:11.916Z,5.43
2019-02-14T12:52:40.552Z,5.87
2019-02-14T12:55:16.529Z,5.90
2019-02-14T12:58:01.704Z,6.10
2019-02-14T13:00:30.980Z,4.80
2019-02-14T13:02:59.532Z,4.83
2019-02-14T13:05:28.135Z,4.37
2019-02-14T13:07:56.692Z,4.07
2019-02-14T13:10:25.361Z,4.50
2019-02-14T13:12:53.924Z,4.80
2019-02-14T13:15:28.825Z,4.70
2019-02-14T13:17:57.375Z,3.57
2019-02-14T13:20:25.937Z,4.40
2019-02-14T13:22:54.546Z,4.30
2019-02-14T13:25:23.172Z,4.60
2019-02-14T13:27:51.781Z,4.40
2019-02-14T13:30:24.970Z,3.90
2019-02-14T13:32:53.624Z,3.80
2019-02-14T13:35:22.175Z,3.27
2019-02-14T13:37:50.777Z,3.87
2019-02-14T13:40:19.336Z,3.50
2019-02-14T13:42:47.944Z,4.30
2019-02-14T13:45:19.580Z,4.03
2019-02-14T13:47:48.195Z,3.87
2019-02-14T13:50:16.802Z,3.23
2019-02-14T13:52:45.378Z,3.50
2019-02-14T13:55:14.204Z,3.20
2019-02-14T13:57:42.952Z,2.83
2019-02-14T14:00:17.244Z,2.80
2019-02-14T14:02:45.844Z,3.20
2019-02-14T14:05:14.388Z,2.60
2019-02-14T14:07:42.990Z,3.13
2019-02-14T14:10:11.543Z,2.60
2019-02-14T14:12:42.138Z,3.23
2019-02-14T14:15:10.501Z,3.30
2019-02-14T14:17:39.110Z,3.10
2019-02-14T14:20:09.201Z,3.37
2019-02-14T14:22:37.813Z,2.97
2019-02-14T14:25:08.196Z,4.13
2019-02-14T14:27:36.816Z,3.93
2019-02-14T14:30:08.080Z,3.73
2019-02-14T14:32:36.671Z,3.30
2019-02-14T14:35:07.469Z,4.37
2019-02-14T14:37:36.800Z,4.20
2019-02-14T14:40:13.803Z,6.17
2019-02-14T14:42:46.688Z,6.30
2019-02-14T14:45:17.027Z,6.03
2019-02-14T14:47:51.500Z,5.60
2019-02-14T14:50:18.527Z,5.43
2019-02-14T14:52:47.144Z,6.08
2019-02-14T14:55:15.700Z,5.43
2019-02-14T14:57:44.296Z,5.07
2019-02-14T15:00:13.499Z,13.63
2019-02-14T15:02:42.137Z,6.93
2019-02-14T15:05:10.766Z,6.43
2019-02-14T15:07:39.400Z,6.63
2019-02-14T15:10:08.399Z,5.33
2019-02-14T15:12:37.011Z,6.30
2019-02-14T15:15:07.012Z,6.03
2019-02-14T15:17:35.630Z,6.27
2019-02-14T15:20:06.284Z,7.17
2019-02-14T15:22:34.909Z,9.70
2019-02-14T15:25:03.465Z,5.83
2019-02-14T15:27:32.067Z,5.90
2019-02-14T15:30:00.631Z,5.63
2019-02-14T15:32:29.227Z,6.47
2019-02-14T15:34:57.785Z,7.17
2019-02-14T15:37:26.388Z,7.90
2019-02-14T15:39:54.945Z,5.73
2019-02-14T15:42:23.556Z,6.93
2019-02-14T15:44:52.111Z,7.93
2019-02-14T15:47:20.733Z,7.07
2019-02-14T15:49:49.433Z,6.73
2019-02-14T15:52:17.996Z,5.90
2019-02-14T15:54:46.553Z,6.00
2019-02-14T15:57:16.531Z,5.40
2019-02-14T15:59:45.646Z,5.77
2019-02-14T16:02:14.287Z,5.93
2019-02-14T16:04:43.168Z,5.87
2019-02-14T16:07:13.202Z,5.90
2019-02-14T16:09:42.100Z,6.37
2019-02-14T16:12:10.652Z,6.20
2019-02-14T16:14:40.731Z,5.80
2019-02-14T16:17:13.122Z,6.23
2019-02-14T16:19:39.728Z,6.07
2019-02-14T16:22:08.280Z,5.80
2019-02-14T16:24:38.630Z,6.23
2019-02-14T16:27:07.100Z,5.10
2019-02-14T16:29:35.708Z,7.20
2019-02-14T16:32:04.263Z,8.00
2019-02-14T16:34:32.902Z,12.93
2019-02-14T16:37:01.461Z,14.23
2019-02-14T16:39:30.059Z,7.23
2019-02-14T16:41:58.620Z,7.05
2019-02-14T16:44:27.232Z,7.03
2019-02-14T16:46:56.524Z,6.40
2019-02-14T16:49:25.319Z,6.67
2019-02-14T16:51:53.867Z,6.43
2019-02-14T16:54:22.495Z,9.03
2019-02-14T16:56:51.113Z,6.00
2019-02-14T16:59:19.718Z,5.87
2019-02-14T17:01:48.273Z,6.83
2019-02-14T17:04:18.765Z,7.60
2019-02-14T17:06:47.328Z,7.73
2019-02-14T17:09:15.943Z,7.50
2019-02-14T17:11:44.573Z,6.37
2019-02-14T17:14:13.192Z,6.73
2019-02-14T17:16:41.748Z,5.40
2019-02-14T17:19:10.368Z,6.07
2019-02-14T17:21:39.002Z,6.67
2019-02-14T17:24:07.555Z,5.93
2019-02-14T17:26:36.180Z,5.07
2019-02-14T17:29:04.844Z,6.33
2019-02-14T17:31:33.473Z,5.80
2019-02-14T17:34:02.029Z,6.77
2019-02-14T17:36:30.659Z,7.50
2019-02-14T17:38:59.214Z,7.33
2019-02-14T17:41:27.848Z,7.50
2019-02-14T17:43:56.404Z,7.30
2019-02-14T17:46:24.962Z,7.20
2019-02-14T17:48:53.588Z,6.87
2019-02-14T17:51:22.136Z,7.97
2019-02-14T17:53:53.821Z,6.67
2019-02-14T17:56:22.390Z,7.93
2019-02-14T17:58:51.031Z,8.40
2019-02-14T18:01:19.596Z,9.00
2019-02-14T18:03:48.224Z,7.60
2019-02-14T18:06:16.780Z,8.80
2019-02-14T18:08:45.425Z,8.47
2019-02-14T18:11:13.988Z,8.57
2019-02-14T18:13:42.632Z,9.37
2019-02-14T18:16:11.192Z,9.13
2019-02-14T18:18:39.832Z,10.07
2019-02-14T18:21:08.396Z,11.00
2019-02-14T18:23:37.096Z,10.63
2019-02-14T18:26:05.660Z,9.80
2019-02-14T18:28:34.327Z,8.97
2019-02-14T18:31:02.879Z,9.20
2019-02-14T18:33:31.509Z,8.07
2019-02-14T18:36:00.065Z,7.87
2019-02-14T18:38:30.320Z,7.67
2019-02-14T18:41:04.067Z,7.80
2019-02-14T18:43:29.240Z,7.70
2019-02-14T18:45:57.797Z,8.60
2019-02-14T18:48:26.676Z,8.07
2019-02-14T18:50:55.232Z,7.80
2019-02-14T18:53:23.861Z,7.77
2019-02-14T18:55:52.427Z,7.80
2019-02-14T18:58:26.555Z,8.43
2019-02-14T19:00:51.243Z,8.93
2019-02-14T19:03:19.880Z,7.90
2019-02-14T19:05:48.436Z,7.47
2019-02-14T19:08:17.072Z,6.93
2019-02-14T19:10:45.741Z,6.63
2019-02-14T19:13:14.372Z,8.53
2019-02-14T19:15:42.931Z,8.73
2019-02-14T19:18:11.564Z,8.87
2019-02-14T19:20:40.120Z,8.93
2019-02-14T19:23:08.755Z,8.70
2019-02-14T19:25:37.311Z,9.97
2019-02-14T19:28:05.945Z,11.67
2019-02-14T19:30:34.507Z,12.00
2019-02-14T19:33:03.147Z,11.90
2019-02-14T19:35:31.702Z,11.93
2019-02-14T19:38:00.331Z,10.30
2019-02-14T19:40:28.900Z,12.58
2019-02-14T19:42:57.541Z,10.07
2019-02-14T19:45:36.063Z,9.47
2019-02-14T19:47:56.364Z,8.38
2019-02-14T19:50:24.947Z,9.67
2019-02-14T19:52:53.544Z,10.00
2019-02-14T19:55:22.106Z,9.97
2019-02-14T19:57:50.664Z,9.00
2019-02-14T20:00:19.295Z,9.33
2019-02-14T20:02:47.861Z,8.13
2019-02-14T20:05:16.495Z,8.30
2019-02-14T20:07:45.061Z,9.43
2019-02-14T20:10:16.734Z,9.45
2019-02-14T20:12:45.304Z,12.47
2019-02-14T20:15:20.448Z,9.15
2019-02-14T20:17:49.005Z,8.80
2019-02-14T20:20:17.639Z,8.43
2019-02-14T20:22:46.206Z,8.18
2019-02-14T20:25:20.466Z,10.35
2019-02-14T20:27:50.056Z,9.95
2019-02-14T20:30:18.945Z,10.50
2019-02-14T20:32:47.603Z,9.80
2019-02-14T20:35:16.243Z,12.15
2019-02-14T20:37:44.816Z,13.03
2019-02-14T20:40:13.515Z,11.65
2019-02-14T20:42:42.153Z,11.30
2019-02-14T20:45:14.942Z,10.85
2019-02-14T20:47:43.566Z,9.93
2019-02-14T20:50:15.593Z,10.10
2019-02-14T20:52:44.220Z,10.18
2019-02-14T20:55:21.643Z,10.78
2019-02-14T20:57:50.216Z,13.18
2019-02-14T21:00:20.483Z,13.95
2019-02-14T21:02:49.117Z,13.45
2019-02-14T21:05:17.768Z,13.10
2019-02-14T21:07:46.327Z,12.75
2019-02-14T21:10:15.032Z,12.20
2019-02-14T21:12:43.675Z,10.03
2019-02-14T21:15:12.369Z,9.98
2019-02-14T21:17:40.945Z,9.53
2019-02-14T21:20:11.831Z,9.90
2019-02-14T21:22:40.404Z,9.70
2019-02-14T21:25:09.770Z,11.00
2019-02-14T21:27:38.460Z,10.58
2019-02-14T21:30:13.470Z,10.18
2019-02-14T21:32:42.037Z,10.75
2019-02-14T21:35:10.660Z,9.45
2019-02-14T21:37:39.230Z,10.58
2019-02-14T21:40:13.193Z,10.30
2019-02-14T21:42:41.783Z,10.65
2019-02-14T21:45:12.520Z,10.08
2019-02-14T21:47:41.164Z,9.58
2019-02-14T21:50:11.682Z,10.10
2019-02-14T21:52:40.363Z,11.10
2019-02-14T21:55:10.871Z,9.83
2019-02-14T21:57:39.485Z,9.75
2019-02-14T22:00:16.673Z,9.78
2019-02-14T22:02:45.569Z,9.60
2019-02-14T22:05:14.260Z,10.43
2019-02-14T22:07:42.886Z,9.63
2019-02-14T22:10:13.242Z,10.35
2019-02-14T22:12:43.227Z,11.00
2019-02-14T22:15:14.909Z,10.23
2019-02-14T22:17:43.543Z,10.30
2019-02-14T22:20:12.213Z,10.90
2019-02-14T22:22:40.848Z,10.05
2019-02-14T22:25:10.978Z,9.55
2019-02-14T22:27:39.604Z,10.23
2019-02-14T22:30:13.848Z,9.15
2019-02-14T22:32:42.536Z,9.43
2019-02-14T22:35:11.271Z,8.75
2019-02-14T22:37:40.000Z,8.40
2019-02-14T22:40:14.773Z,9.70
2019-02-14T22:42:47.117Z,9.85
2019-02-14T22:45:14.943Z,9.95
2019-02-14T22:47:44.656Z,8.90
2019-02-14T22:50:13.589Z,9.78
2019-02-14T22:52:42.218Z,9.80
2019-02-14T22:55:14.365Z,9.83
2019-02-14T22:57:42.927Z,9.70
2019-02-14T23:00:33.389Z,9.38
2019-02-14T23:03:02.020Z,9.13
2019-02-14T23:05:30.630Z,8.85
2019-02-14T23:07:59.243Z,9.43
2019-02-14T23:10:27.854Z,8.43
2019-02-14T23:12:56.488Z,9.45
2019-02-14T23:15:25.083Z,9.90
2019-02-14T23:17:53.712Z,8.80
2019-02-14T23:20:22.384Z,8.95
2019-02-14T23:22:50.945Z,9.75
2019-02-14T23:25:19.546Z,9.05
2019-02-14T23:27:48.099Z,9.43
2019-02-14T23:30:16.660Z,9.28
2019-02-14T23:32:45.285Z,9.18
2019-02-14T23:35:13.846Z,9.20
2019-02-14T23:37:42.440Z,9.63
2019-02-14T23:40:11.136Z,9.20
2019-02-14T23:42:39.736Z,9.35
2019-02-14T23:45:09.739Z,9.65
2019-02-14T23:47:38.405Z,9.85
2019-02-14T23:50:09.282Z,9.75
2019-02-14T23:52:37.870Z,9.33
2019-02-14T23:55:07.967Z,9.00
2019-02-14T23:57:36.569Z,9.10
